Time;durP1;ratioP1;P1;durP2;ratioP2;P2;SDS_P1;SDS_P2;PMS_P1;PMS_P2;Temp;Humidity;BMP_temperature;BMP_pressure;BME280_temperature;BME280_humidity;BME280_pressure;Samples;Min_cycle;Max_cycle;Signal;HPM_P1;HPM_P2
2020/12/03 06:27:23;;;;;;;30.65;15.00;;;;;;;-0.85;77.90;101184.71;1728341;82;21143;-57
2020/12/03 06:30:07;;;;;;;28.98;15.23;;;;;;;-0.79;77.96;101173.41;1850650;77;22192;-58
2020/12/03 06:33:16;;;;;;;27.48;14.55;;;;;;;-0.79;77.75;101169.13;1751685;81;21637;-58
2020/12/03 06:36:06;;;;;;;25.85;13.80;;;;;;;-0.67;77.55;101177.70;1729113;81;21190;-60
2020/12/03 06:39:01;;;;;;;28.15;15.28;;;;;;;-0.62;77.31;101173.68;1764748;81;21687;-62
2020/12/03 06:42:01;;;;;;;30.00;14.25;;;;;;;-0.55;77.10;101172.16;1737536;81;21707;-57
2020/12/03 06:44:40;;;;;;;25.90;13.28;;;;;;;-0.53;76.77;101174.67;1765894;81;21585;-58
2020/12/03 06:47:46;;;;;;;26.37;14.78;;;;;;;-0.55;76.65;101171.33;1762001;81;21154;-59
2020/12/03 06:50:34;;;;;;;;;;;;;;;-0.53;76.69;101169.98;1687736;84;22399;-59
2020/12/03 06:53:45;;;;;;;31.12;15.85;;;;;;;-0.33;76.43;101167.12;1847481;77;22264;-58
2020/12/03 06:57:01;;;;;;;28.75;15.35;;;;;;;-0.35;75.99;101170.66;1793360;78;21657;-62
2020/12/03 07:00:09;;;;;;;28.90;15.65;;;;;;;-0.39;75.73;101163.48;1810383;78;21585;-59
2020/12/03 07:03:02;;;;;;;27.70;13.85;;;;;;;-0.41;75.53;101165.73;1813316;78;21586;-61
2020/12/03 07:06:22;;;;;;;26.35;14.38;;;;;;;-0.49;75.62;101167.27;1793562;80;21574;-59
2020/12/03 07:09:28;;;;;;;25.23;13.85;;;;;;;-0.48;75.79;101165.55;1799363;78;21609;-59
2020/12/03 07:12:15;;;;;;;;;;;;;;;-0.46;75.82;101164.59;1777800;78;21580;-57
2020/12/03 07:15:32;;;;;;;30.68;13.48;;;;;;;-0.34;75.82;101166.73;1747446;78;20289;-58
2020/12/03 07:18:15;;;;;;;26.40;13.80;;;;;;;-0.40;75.56;101162.26;1797953;78;21138;-58
2020/12/03 07:21:05;;;;;;;29.77;13.72;;;;;;;-0.45;75.64;101163.69;1792923;78;21547;-60
2020/12/03 07:23:52;;;;;;;25.48;14.28;;;;;;;-0.39;75.81;101167.78;1821020;77;22150;-60
2020/12/03 07:27:06;;;;;;;27.07;15.55;;;;;;;-0.22;75.70;101171.91;1738033;81;21162;-60
2020/12/03 07:30:06;;;;;;;27.62;14.10;;;;;;;-0.22;75.70;101171.91;1722851;80;21664;-60
2020/12/03 07:32:49;;;;;;;30.15;14.70;;;;;;;-0.10;75.28;101171.92;1770509;80;21764;-60
2020/12/03 07:35:33;;;;;;;31.55;15.45;;;;;;;-0.08;75.22;101180.41;1758862;80;21138;-60
2020/12/03 07:38:30;;;;;;;28.10;14.95;;;;;;;0.06;75.03;101182.03;1747346;82;21585;-60
2020/12/03 07:40:58;;;;;;;26.95;15.90;;;;;;;0.13;74.57;101183.52;1747100;82;21560;-60
2020/12/03 07:43:38;;;;;;;26.57;14.98;;;;;;;0.18;73.85;101185.90;1747026;82;21181;-59
2020/12/03 07:46:32;;;;;;;27.70;14.35;;;;;;;0.18;73.85;101185.90;1746695;82;21668;-65
2020/12/03 07:49:00;;;;;;;24.40;14.38;;;;;;;0.17;74.05;101186.35;1789537;80;21553;-60
2020/12/03 07:51:29;;;;;;;25.50;14.40;;;;;;;0.28;73.70;101195.42;1763008;80;21654;-60
2020/12/03 07:54:21;;;;;;;23.40;13.95;;;;;;;0.34;73.35;101196.48;1750886;80;21549;-58
2020/12/03 07:56:51;;;;;;;33.38;18.90;;;;;;;0.39;73.06;101197.16;1746604;80;22282;-59
2020/12/03 07:59:27;;;;;;;26.48;16.37;;;;;;;0.31;72.81;101199.15;1767959;80;21681;-58
2020/12/03 08:01:59;;;;;;;32.60;18.07;;;;;;;0.31;72.81;101199.15;1795475;80;21570;-57
2020/12/03 08:04:35;;;;;;;31.27;17.05;;;;;;;0.31;72.67;101193.59;1795691;80;21126;-58
2020/12/03 08:07:15;;;;;;;25.08;13.32;;;;;;;0.38;72.82;101195.48;1795526;80;21344;-59
2020/12/03 08:09:46;;;;;;;24.85;14.58;;;;;;;0.46;72.35;101189.60;1795116;80;21646;-60
2020/12/03 08:12:20;;;;;;;23.67;14.75;;;;;;;0.35;72.09;101189.16;1749436;80;21304;-59
2020/12/03 08:14:53;;;;;;;25.65;14.00;;;;;;;0.34;72.22;101192.63;1735501;81;21276;-59
2020/12/03 08:17:27;;;;;;;25.10;14.25;;;;;;;0.33;71.94;101186.64;1729876;81;21155;-60
2020/12/03 08:20:15;;;;;;;28.05;14.75;;;;;;;0.28;72.05;101188.54;1739791;81;21287;-60
2020/12/03 08:22:47;;;;;;;25.05;14.68;;;;;;;0.28;72.05;101188.54;1734411;81;21582;-59
2020/12/03 08:25:28;;;;;;;27.70;15.20;;;;;;;0.32;71.83;101184.98;1758688;80;21150;-60
2020/12/03 08:28:00;;;;;;;27.05;14.15;;;;;;;0.28;71.50;101178.70;1744934;80;21292;-64
2020/12/03 08:30:35;;;;;;;34.80;18.82;;;;;;;0.28;71.50;101178.70;1728036;80;21174;-57
2020/12/03 08:33:12;;;;;;;;;;;;;;;0.13;71.80;101184.80;1733028;80;21771;-59
2020/12/03 08:35:41;;;;;;;52.43;23.57;;;;;;;0.14;71.97;101181.78;1735070;80;20441;-59
2020/12/03 08:38:09;;;;;;;63.40;31.55;;;;;;;0.14;71.97;101181.78;1738581;82;21297;-60
2020/12/03 08:40:39;;;;;;;41.02;22.48;;;;;;;0.09;71.84;101173.39;1725081;82;21183;-59
2020/12/03 08:43:10;;;;;;;42.80;23.10;;;;;;;0.09;71.84;101173.39;1736968;82;21546;-59
2020/12/03 08:46:05;;;;;;;33.67;18.65;;;;;;;-0.07;71.90;101170.52;1720216;82;21633;-62
2020/12/03 08:48:35;;;;;;;34.70;19.30;;;;;;;-0.07;71.90;101170.52;1759449;81;21682;-61
2020/12/03 08:51:08;;;;;;;99.13;39.58;;;;;;;-0.07;72.08;101174.38;1758101;81;21336;-60
2020/12/03 08:53:37;;;;;;;53.02;26.35;;;;;;;-0.06;71.98;101165.80;1759065;81;21187;-59
2020/12/03 08:56:30;;;;;;;71.07;36.13;;;;;;;-0.06;71.98;101165.80;1784064;80;21488;-58
2020/12/03 08:59:09;;;;;;;51.75;29.87;;;;;;;-0.10;71.95;101156.06;1760010;81;21706;-61
2020/12/03 09:01:47;;;;;;;30.48;16.17;;;;;;;-0.03;72.31;101157.52;1758727;81;21183;-62
2020/12/03 09:04:23;;;;;;;26.05;15.60;;;;;;;0.05;72.17;101152.55;1786745;80;21308;-60
2020/12/03 09:06:53;;;;;;;24.43;13.30;;;;;;;0.09;72.09;101152.84;1782747;80;21294;-59
2020/12/03 09:09:25;;;;;;;25.70;14.00;;;;;;;0.07;71.99;101158.04;1758033;80;21551;-61
2020/12/03 09:11:53;;;;;;;23.75;14.25;;;;;;;0.09;72.13;101154.12;1759636;80;21316;-61
2020/12/03 09:14:22;;;;;;;21.90;13.18;;;;;;;0.11;72.11;101149.75;1759019;80;21184;-57
2020/12/03 09:17:05;;;;;;;20.68;11.45;;;;;;;0.15;72.19;101155.19;1755844;80;21614;-59
2020/12/03 09:19:34;;;;;;;23.32;13.38;;;;;;;0.23;72.06;101147.57;1738658;80;21594;-59
2020/12/03 09:22:02;;;;;;;24.75;13.98;;;;;;;0.17;72.10;101142.66;1754682;80;21579;-57
2020/12/03 09:24:31;;;;;;;24.00;13.38;;;;;;;0.30;72.20;101140.47;1710675;83;21554;-58
2020/12/03 09:27:03;;;;;;;24.10;13.05;;;;;;;0.42;72.06;101138.72;1754259;81;21639;-60
2020/12/03 09:29:31;;;;;;;23.67;13.20;;;;;;;0.52;71.96;101132.34;1757052;81;21236;-60
2020/12/03 09:32:05;;;;;;;25.80;13.88;;;;;;;0.58;71.69;101127.88;1723769;83;21191;-60
2020/12/03 09:34:36;;;;;;;23.55;12.50;;;;;;;0.68;71.45;101128.72;1757206;81;21143;-61
2020/12/03 09:37:06;;;;;;;24.43;14.68;;;;;;;0.77;70.95;101121.11;1751486;81;21594;-60
2020/12/03 09:39:35;;;;;;;22.67;13.30;;;;;;;0.74;70.77;101126.36;1716144;83;21189;-59
2020/12/03 09:42:04;;;;;;;23.95;14.05;;;;;;;0.75;70.61;101119.89;1693088;85;21242;-60
2020/12/03 09:44:34;;;;;;;28.75;18.32;;;;;;;0.77;70.73;101124.96;1690738;84;21195;-60
2020/12/03 09:47:09;;;;;;;20.85;13.13;;;;;;;0.84;70.72;101129.42;1698945;83;21363;-60
2020/12/03 09:49:43;;;;;;;23.20;13.83;;;;;;;0.86;70.32;101116.87;1685621;83;21322;-59
2020/12/03 09:52:13;;;;;;;24.12;14.23;;;;;;;0.67;70.20;101115.92;1673973;85;21610;-58
2020/12/03 09:54:41;;;;;;;26.07;15.03;;;;;;;0.59;70.71;101125.68;1697972;83;21531;-58
2020/12/03 09:57:12;;;;;;;43.85;23.92;;;;;;;0.64;70.70;101119.91;1689497;85;21216;-58
2020/12/03 09:59:40;;;;;;;32.85;18.80;;;;;;;0.66;70.79;101120.23;1695540;83;21746;-58
2020/12/03 10:02:28;;;;;;;35.05;19.82;;;;;;;0.72;70.81;101117.42;1688340;85;21244;-58
2020/12/03 10:05:31;;;;;;;37.85;19.02;;;;;;;0.74;70.79;101121.21;1689189;85;21552;-59
2020/12/03 10:08:40;;;;;;;37.90;20.82;;;;;;;0.84;70.94;101119.13;1689266;85;21587;-58
2020/12/03 10:11:54;;;;;;;34.67;19.62;;;;;;;0.97;71.12;101115.16;1705431;84;21618;-59
2020/12/03 10:14:55;;;;;;;27.93;16.20;;;;;;;1.05;70.73;101118.25;1700666;84;21891;-58
2020/12/03 10:17:26;;;;;;;24.35;13.83;;;;;;;1.12;70.53;101113.69;1692011;84;21604;-58
2020/12/03 10:19:55;;;;;;;24.37;13.85;;;;;;;1.08;70.13;101110.42;1675504;85;21597;-58
2020/12/03 10:22:29;;;;;;;25.37;13.45;;;;;;;1.09;70.08;101118.52;1692110;84;21623;-57
2020/12/03 10:25:18;;;;;;;23.20;13.68;;;;;;;1.03;70.05;101107.19;1697986;84;21265;-58
2020/12/03 10:28:24;;;;;;;24.72;14.85;;;;;;;1.04;70.43;101109.69;1671812;85;21338;-58
2020/12/03 10:31:04;;;;;;;26.75;14.87;;;;;;;1.11;70.74;101102.55;1823477;77;22593;-57
2020/12/03 10:33:35;;;;;;;24.60;14.07;;;;;;;1.12;70.91;101102.97;1793063;78;21547;-59
2020/12/03 10:36:34;;;;;;;21.85;12.58;;;;;;;1.19;70.72;101103.55;1803733;78;21546;-58
2020/12/03 10:39:03;;;;;;;22.10;12.23;;;;;;;1.21;70.42;101102.57;1704572;82;21633;-57
2020/12/03 10:41:36;;;;;;;21.68;11.48;;;;;;;1.16;70.11;101105.78;1703243;83;21162;-57
2020/12/03 10:44:09;;;;;;;21.23;12.45;;;;;;;0.95;70.37;101105.39;1698262;82;21787;-57
2020/12/03 10:46:42;;;;;;;22.22;12.35;;;;;;;0.89;70.67;101102.61;1710665;83;21222;-57
2020/12/03 10:49:15;;;;;;;24.30;14.00;;;;;;;0.94;70.72;101099.86;1712158;82;21676;-57
2020/12/03 10:51:45;;;;;;;25.10;13.62;;;;;;;0.99;70.76;101095.33;1700247;84;21175;-57
2020/12/03 10:54:18;;;;;;;26.45;14.93;;;;;;;0.96;70.50;101090.33;1700655;83;21209;-56
2020/12/03 10:59:39;;;;;;;25.72;13.72;;;;;;;0.92;70.51;101085.73;1818088;77;22775;-59
2020/12/03 11:02:27;;;;;;;21.90;12.43;;;;;;;0.80;70.56;101084.50;1791743;79;21210;-59
2020/12/03 11:04:55;;;;;;;24.75;13.05;;;;;;;0.71;70.56;101075.88;1792727;80;21190;-59
2020/12/03 11:07:25;;;;;;;25.02;13.03;;;;;;;0.68;70.66;101073.86;1791977;80;21166;-59
2020/12/03 11:09:57;;;;;;;22.37;12.90;;;;;;;0.63;70.65;101075.36;1781445;80;21947;-59
2020/12/03 11:12:30;;;;;;;20.97;11.45;;;;;;;0.59;70.78;101071.22;1754711;79;21154;-59
2020/12/03 11:15:05;;;;;;;23.73;13.28;;;;;;;0.55;70.86;101064.52;1786795;80;21240;-59
2020/12/03 11:17:42;;;;;;;24.95;13.58;;;;;;;0.50;71.14;101066.45;1780716;80;21566;-59
2020/12/03 11:20:18;;;;;;;26.42;13.65;;;;;;;0.51;71.38;101071.53;1784627;80;21131;-59
2020/12/03 11:23:02;;;;;;;25.48;14.73;;;;;;;0.54;71.45;101063.67;1784169;80;21527;-59
2020/12/03 11:25:37;;;;;;;33.40;19.00;;;;;;;0.53;71.72;101072.75;1821192;77;22126;-59
2020/12/03 11:28:12;;;;;;;31.75;16.67;;;;;;;0.51;71.82;101070.70;1785237;80;21166;-60
2020/12/03 11:30:40;;;;;;;25.95;14.43;;;;;;;0.59;71.82;101063.95;1789641;80;21158;-58
2020/12/03 11:33:09;;;;;;;24.67;14.20;;;;;;;0.61;71.79;101068.13;1697337;83;21130;-57
2020/12/03 11:35:37;;;;;;;28.45;15.03;;;;;;;0.60;71.64;101078.03;1744035;81;21171;-58
2020/12/03 11:38:08;;;;;;;24.27;13.68;;;;;;;0.64;71.79;101074.91;1749910;81;21171;-57
2020/12/03 11:48:42;;;;;;;23.85;13.38;;;;;;;0.87;71.46;101060.67;1745000;81;21049;-59
2020/12/03 11:51:29;;;;;;;27.55;12.75;;;;;;;0.87;71.46;101060.67;1741613;81;21643;-59
2020/12/03 11:54:08;;;;;;;22.30;12.33;;;;;;;0.79;71.07;101062.25;1728204;83;21191;-59
2020/12/03 11:56:38;;;;;;;22.42;12.90;;;;;;;0.65;71.17;101070.14;1696295;84;21690;-57
2020/12/03 11:59:19;;;;;;;25.05;13.35;;;;;;;0.66;71.51;101062.36;1728479;83;21186;-57
2020/12/03 12:01:59;;;;;;;22.17;12.25;;;;;;;0.66;71.51;101066.67;1710456;82;21386;-57
2020/12/03 12:07:33;;;;;;;26.30;14.63;;;;;;;0.53;71.42;101068.89;1727232;82;21579;-58
2020/12/03 12:10:17;;;;;;;28.80;16.37;;;;;;;0.65;72.09;101061.97;1730671;82;21161;-58
2020/12/03 12:12:35;;;;;;;33.13;19.30;;;;;;;0.65;72.09;101061.97;1729188;82;21152;-58
2020/12/03 12:15:04;;;;;;;31.17;17.48;;;;;;;0.76;71.83;101057.69;1737620;82;21728;-58
2020/12/03 12:17:36;;;;;;;27.32;15.63;;;;;;;0.86;71.61;101058.14;1737860;82;21571;-58
2020/12/03 12:20:07;;;;;;;26.33;13.85;;;;;;;0.85;71.50;101069.33;1734992;82;21780;-58
2020/12/03 12:22:35;;;;;;;22.98;12.98;;;;;;;0.86;71.80;101065.86;1722859;82;21248;-58
2020/12/03 12:25:03;;;;;;;24.98;13.53;;;;;;;0.86;71.80;101065.86;1703178;82;21644;-58
2020/12/03 12:27:32;;;;;;;22.80;12.65;;;;;;;0.77;71.64;101063.22;1675861;85;21236;-58
2020/12/03 12:30:00;;;;;;;19.52;11.55;;;;;;;0.73;71.71;101057.34;1697917;83;21340;-58
2020/12/03 12:32:29;;;;;;;21.50;12.13;;;;;;;0.64;72.02;101059.47;1694173;84;21178;-58
2020/12/03 12:34:58;;;;;;;22.65;12.00;;;;;;;0.64;72.02;101059.47;1698219;83;21442;-58
2020/12/03 12:37:27;;;;;;;21.35;12.60;;;;;;;0.65;71.87;101056.00;1699168;84;21585;-58
2020/12/03 12:39:56;;;;;;;31.45;17.35;;;;;;;0.56;72.17;101053.77;1695327;83;21641;-58
2020/12/03 12:42:26;;;;;;;26.73;14.95;;;;;;;0.56;72.17;101053.77;1712924;83;22345;-57
2020/12/03 12:44:55;;;;;;;22.15;11.73;;;;;;;0.60;72.15;101059.19;1705608;83;21195;-58
2020/12/03 12:47:24;;;;;;;27.80;15.93;;;;;;;0.49;72.03;101062.18;1707924;83;21217;-60
2020/12/03 12:49:53;;;;;;;33.33;18.35;;;;;;;0.49;72.47;101063.47;1705326;82;21642;-59
2020/12/03 12:52:22;;;;;;;39.70;23.47;;;;;;;0.48;72.49;101066.94;1750745;82;21195;-58
2020/12/03 12:54:50;;;;;;;34.53;19.02;;;;;;;0.48;72.49;101066.94;1752037;82;21602;-58
2020/12/03 12:57:19;;;;;;;21.35;12.43;;;;;;;0.51;72.53;101050.13;1750947;82;21598;-58
2020/12/03 12:59:48;;;;;;;19.67;11.75;;;;;;;0.40;72.49;101052.27;1744157;82;21618;-58
2020/12/03 13:02:16;;;;;;;20.10;11.38;;;;;;;0.28;72.80;101051.01;1752203;81;21657;-57
2020/12/03 13:04:46;;;;;;;21.50;12.95;;;;;;;0.36;72.77;101059.70;1745614;82;21551;-57
2020/12/03 13:07:15;;;;;;;30.70;14.95;;;;;;;0.36;72.77;101059.70;1747870;82;21626;-57
2020/12/03 13:09:44;;;;;;;45.85;24.92;;;;;;;0.46;72.50;101065.72;1753563;81;21642;-58
2020/12/03 13:12:13;;;;;;;35.85;19.32;;;;;;;0.46;72.50;101065.72;1753256;82;21598;-57
2020/12/03 13:14:42;;;;;;;32.98;18.17;;;;;;;0.46;72.36;101064.44;1753648;81;21119;-57
2020/12/03 13:17:10;;;;;;;53.95;28.55;;;;;;;0.47;72.28;101062.25;1747644;81;21159;-57
2020/12/03 13:19:40;;;;;;;38.90;20.68;;;;;;;0.42;72.10;101059.02;1747909;82;21613;-58
2020/12/03 13:22:09;;;;;;;31.55;17.85;;;;;;;0.30;72.32;101061.22;1756298;80;21575;-58
2020/12/03 13:24:38;;;;;;;25.43;13.65;;;;;;;0.25;72.52;101063.99;1756994;81;21581;-58
2020/12/03 13:27:06;;;;;;;23.22;13.10;;;;;;;0.22;72.58;101064.09;1761658;81;22326;-58
2020/12/03 13:29:37;;;;;;;22.65;12.35;;;;;;;0.18;72.73;101059.51;1762234;81;21675;-58
2020/12/03 13:32:06;;;;;;;23.57;12.18;;;;;;;0.18;72.98;101063.36;1762591;81;21544;-58
2020/12/03 13:34:34;;;;;;;27.80;15.32;;;;;;;0.10;73.06;101074.39;1761934;81;21615;-58
2020/12/03 13:37:03;;;;;;;25.75;13.95;;;;;;;-0.05;73.50;101074.97;1761899;81;21569;-58
2020/12/03 13:39:32;;;;;;;27.22;15.13;;;;;;;-0.05;73.50;101074.97;1740850;81;21621;-58
2020/12/03 13:42:00;;;;;;;25.15;13.93;;;;;;;-0.04;73.83;101079.22;1741497;81;21673;-58
2020/12/03 13:44:29;;;;;;;22.90;12.47;;;;;;;-0.01;73.86;101070.92;1759788;81;21135;-58
2020/12/03 13:47:00;;;;;;;24.32;13.62;;;;;;;-0.01;73.88;101064.95;1760593;81;21637;-57
2020/12/03 13:49:29;;;;;;;26.65;13.80;;;;;;;0.01;73.99;101067.48;1758628;81;21764;-59
2020/12/03 13:51:58;;;;;;;25.25;13.45;;;;;;;0.03;74.02;101067.81;1761230;81;21175;-58
2020/12/03 13:54:28;;;;;;;25.90;13.55;;;;;;;-0.05;73.98;101068.10;1759747;81;21570;-58
2020/12/03 13:56:58;;;;;;;26.50;14.18;;;;;;;-0.05;73.98;101068.10;1748625;81;21602;-59
2020/12/03 13:59:26;;;;;;;29.00;13.88;;;;;;;-0.08;74.18;101069.94;1753360;81;22205;-60
2020/12/03 14:01:56;;;;;;;22.35;10.95;;;;;;;-0.08;74.39;101065.62;1752717;81;21189;-59
2020/12/03 14:04:24;;;;;;;21.42;11.30;;;;;;;-0.07;74.29;101056.19;1759174;81;21537;-60
2020/12/03 14:06:54;;;;;;;26.12;16.07;;;;;;;-0.12;74.36;101059.40;1740700;80;21131;-59
2020/12/03 14:09:22;;;;;;;26.23;13.85;;;;;;;-0.18;74.38;101059.17;1742728;81;21130;-60
2020/12/03 14:11:51;;;;;;;24.37;12.75;;;;;;;-0.18;74.70;101054.03;1760677;81;22281;-59
2020/12/03 14:14:19;;;;;;;23.32;11.78;;;;;;;-0.15;74.70;101056.92;1743062;81;21689;-59
2020/12/03 14:16:48;;;;;;;22.98;11.63;;;;;;;-0.22;74.84;101055.48;1760707;81;21126;-59
2020/12/03 14:19:17;;;;;;;24.75;12.23;;;;;;;-0.23;74.90;101056.38;1755963;80;21622;-58
2020/12/03 14:21:47;;;;;;;24.60;12.63;;;;;;;-0.26;75.02;101059.88;1760342;80;21304;-56
2020/12/03 14:24:15;;;;;;;25.68;12.85;;;;;;;-0.11;75.20;101064.92;1759376;81;21142;-57
2020/12/03 14:26:46;;;;;;;24.63;13.03;;;;;;;-0.11;75.20;101064.92;1746478;82;21606;-57
2020/12/03 14:29:14;;;;;;;23.83;12.63;;;;;;;-0.01;75.15;101066.23;1748656;82;21566;-56
2020/12/03 14:31:47;;;;;;;29.20;15.38;;;;;;;-0.01;75.15;101066.23;1748271;82;21118;-58
2020/12/03 14:34:16;;;;;;;32.38;16.20;;;;;;;0.09;75.00;101061.61;1747567;82;21095;-58
2020/12/03 14:36:46;;;;;;;40.67;19.62;;;;;;;0.14;74.69;101069.53;1718743;83;21178;-56
2020/12/03 14:39:15;;;;;;;40.65;21.25;;;;;;;0.11;74.54;101063.20;1738799;82;21522;-58
2020/12/03 14:41:44;;;;;;;37.05;18.67;;;;;;;0.08;74.57;101072.78;1745796;82;21582;-59
2020/12/03 14:44:12;;;;;;;31.33;15.98;;;;;;;0.09;74.42;101070.15;1748411;82;21174;-59
2020/12/03 14:46:42;;;;;;;32.50;17.23;;;;;;;0.09;74.42;101070.15;1748399;82;21601;-59
2020/12/03 14:49:15;;;;;;;30.40;16.15;;;;;;;-0.01;74.48;101070.92;1748287;82;21593;-59
2020/12/03 14:51:46;;;;;;;29.42;16.45;;;;;;;-0.01;74.67;101070.09;1747837;81;21578;-60
2020/12/03 14:54:13;;;;;;;30.88;17.00;;;;;;;0.01;74.53;101067.04;1746260;82;21140;-59
